createdAt,value
2022-08-22T00:01:49.053Z,96120.56
2022-08-22T00:04:33.319Z,96112.97
2022-08-22T00:07:16.079Z,96115.22
2022-08-22T00:10:01.278Z,96117.13
2022-08-22T00:12:48.483Z,96118.28
2022-08-22T00:15:42.355Z,96114.84
2022-08-22T00:18:13.409Z,96123.59
2022-08-22T00:20:49.530Z,96119.41
2022-08-22T00:23:22.873Z,96127.41
2022-08-22T00:25:58.237Z,96128.53
2022-08-22T00:28:37.029Z,96132.31
2022-08-22T00:31:24.626Z,96131.59
2022-08-22T00:34:22.662Z,96127.38
2022-08-22T00:37:09.809Z,96138.03
2022-08-22T00:39:45.880Z,96135.38
2022-08-22T00:42:40.375Z,96140.66
2022-08-22T00:45:32.336Z,96128.91
2022-08-22T00:48:29.738Z,96129.66
2022-08-22T00:51:13.724Z,96127.78
2022-08-22T00:53:52.916Z,96128.13
2022-08-22T00:56:47.437Z,96136.50
2022-08-22T00:59:31.493Z,96132.34
2022-08-22T01:02:11.131Z,96129.28
2022-08-22T01:04:52.256Z,96136.13
2022-08-22T01:07:38.123Z,96133.47
2022-08-22T01:10:28.044Z,96130.06
2022-08-22T01:13:13.050Z,96131.22
2022-08-22T01:15:42.373Z,96134.97
2022-08-22T01:18:11.957Z,96134.63
2022-08-22T01:21:10.717Z,96132.72
2022-08-22T01:23:45.789Z,96125.50
2022-08-22T01:26:49.722Z,96123.97
2022-08-22T01:29:31.399Z,96131.94
2022-08-22T01:32:10.526Z,96133.06
2022-08-22T01:34:54.868Z,96135.75
2022-08-22T01:37:45.726Z,96134.59
2022-08-22T01:40:53.578Z,96138.00
2022-08-22T01:44:00.401Z,96129.28
2022-08-22T01:46:36.366Z,96134.59
2022-08-22T01:49:25.226Z,96139.16
2022-08-22T01:51:59.069Z,96129.28
2022-08-22T01:54:44.347Z,96135.00
2022-08-22T01:57:12.296Z,96136.50
2022-08-22T01:59:43.979Z,96143.34
2022-08-22T02:02:32.085Z,96139.53
2022-08-22T02:05:11.330Z,96152.81
2022-08-22T02:07:40.587Z,96144.09
2022-08-22T02:10:31.935Z,96147.09
2022-08-22T02:13:30.076Z,96136.44
2022-08-22T02:16:35.678Z,96142.91
2022-08-22T02:19:30.945Z,96142.50
2022-08-22T02:21:57.381Z,96145.19
2022-08-22T02:24:32.822Z,96143.66
2022-08-22T02:27:40.573Z,96141.75
2022-08-22T02:30:07.323Z,96149.34
2022-08-22T02:32:51.732Z,96152.78
2022-08-22T02:35:30.059Z,96136.44
2022-08-22T02:38:28.902Z,96143.25
2022-08-22T02:41:18.448Z,96136.75
2022-08-22T02:43:59.574Z,96139.41
2022-08-22T02:46:47.047Z,96139.41
2022-08-22T02:49:31.004Z,96136.41
2022-08-22T02:52:11.732Z,96138.66
2022-08-22T02:55:04.042Z,96137.50
2022-08-22T02:57:40.278Z,96135.59
2022-08-22T03:00:27.672Z,96136.38
2022-08-22T03:02:59.340Z,96137.16
2022-08-22T03:05:40.238Z,96129.50
2022-08-22T03:08:29.220Z,96134.47
2022-08-22T03:11:01.182Z,96129.91
2022-08-22T03:13:37.582Z,96134.13
2022-08-22T03:16:13.344Z,96126.09
2022-08-22T03:18:59.088Z,96135.63
2022-08-22T03:21:53.517Z,96139.41
2022-08-22T03:24:31.384Z,96128.38
2022-08-22T03:27:15.223Z,96132.56
2022-08-22T03:30:04.902Z,96129.91
2022-08-22T03:33:12.675Z,96128.78
2022-08-22T03:35:42.279Z,96133.72
2022-08-22T03:38:20.488Z,96135.59
2022-08-22T03:41:17.928Z,96130.66
2022-08-22T03:44:12.068Z,96136.38
2022-08-22T03:46:50.322Z,96132.22
2022-08-22T03:49:35.317Z,96136.38
2022-08-22T03:53:01.445Z,96129.16
2022-08-22T03:56:01.089Z,96119.66
2022-08-22T03:58:53.824Z,96133.69
2022-08-22T04:01:29.477Z,96134.84
2022-08-22T04:04:05.068Z,96138.66
2022-08-22T04:06:53.675Z,96135.63
2022-08-22T04:09:47.620Z,96139.03
2022-08-22T04:12:41.593Z,96142.88
2022-08-22T04:15:08.044Z,96140.22
2022-08-22T04:17:45.775Z,96142.13
2022-08-22T04:20:40.362Z,96139.81
2022-08-22T04:23:41.170Z,96140.59
2022-08-22T04:26:21.205Z,96142.13
2022-08-22T04:29:05.757Z,96140.59
2022-08-22T04:31:46.309Z,96148.19
2022-08-22T04:34:21.291Z,96152.38
2022-08-22T04:36:56.593Z,96158.84
2022-08-22T04:39:32.139Z,96159.59
2022-08-22T04:42:32.146Z,96145.94
2022-08-22T04:45:18.596Z,96154.69
2022-08-22T04:47:54.244Z,96153.56
2022-08-22T04:50:54.994Z,96149.78
2022-08-22T04:53:47.898Z,96161.53
2022-08-22T04:56:36.553Z,96166.50
2022-08-22T04:59:16.468Z,96165.34
2022-08-22T05:01:45.022Z,96166.13
2022-08-22T05:04:20.202Z,96175.63
2022-08-22T05:06:52.230Z,96181.34
2022-08-22T05:09:26.024Z,96174.50
2022-08-22T05:11:58.041Z,96188.94
2022-08-22T05:14:40.133Z,96186.25
2022-08-22T05:17:08.888Z,96179.03
2022-08-22T05:19:40.123Z,96185.88
2022-08-22T05:22:16.408Z,96179.38
2022-08-22T05:24:48.422Z,96182.03
2022-08-22T05:27:23.062Z,96183.53
2022-08-22T05:29:54.478Z,96180.53
2022-08-22T05:32:29.034Z,96186.97
2022-08-22T05:35:02.137Z,96177.47
2022-08-22T05:37:48.264Z,96188.84
2022-08-22T05:40:21.565Z,96185.03
2022-08-22T05:42:48.530Z,96188.38
2022-08-22T05:45:18.269Z,96188.00
2022-08-22T05:48:18.359Z,96191.34
2022-08-22T05:50:51.104Z,96196.53
2022-08-22T05:53:33.641Z,96194.56
2022-08-22T05:56:48.353Z,96190.25
2022-08-22T05:59:24.976Z,96191.72
2022-08-22T06:02:48.310Z,96191.97
2022-08-22T06:05:21.925Z,96194.78
2022-08-22T06:07:51.222Z,96193.78
2022-08-22T06:10:25.591Z,96181.97
2022-08-22T06:12:54.755Z,96189.50
2022-08-22T06:15:29.111Z,96203.78
2022-08-22T06:18:05.229Z,96196.78
2022-08-22T06:20:42.279Z,96205.75
2022-08-22T06:23:15.846Z,96205.56
2022-08-22T06:25:46.914Z,96189.44
2022-08-22T06:28:20.158Z,96212.28
2022-08-22T06:30:50.812Z,96212.44
2022-08-22T06:33:24.756Z,96208.53
2022-08-22T06:36:33.818Z,96211.63
2022-08-22T06:39:25.155Z,96218.69
2022-08-22T06:42:03.038Z,96213.22
2022-08-22T06:44:38.323Z,96221.63
2022-08-22T06:47:10.887Z,96209.94
2022-08-22T06:49:40.026Z,96213.06
2022-08-22T06:52:14.218Z,96213.97
2022-08-22T06:54:51.559Z,96207.59
2022-08-22T06:57:33.283Z,96215.66
2022-08-22T07:00:05.383Z,96219.22
2022-08-22T07:02:45.782Z,96216.25
2022-08-22T07:05:18.979Z,96206.28
2022-08-22T07:07:45.773Z,96211.53
2022-08-22T07:10:16.644Z,96214.94
2022-08-22T07:12:53.478Z,96217.25
2022-08-22T07:15:41.576Z,96221.84
2022-08-22T07:18:16.837Z,96227.97
2022-08-22T07:20:49.487Z,96220.47
2022-08-22T07:23:27.030Z,96235.16
2022-08-22T07:26:17.026Z,96230.41
2022-08-22T07:28:51.399Z,96229.78
2022-08-22T07:31:39.554Z,96228.53
2022-08-22T07:34:33.351Z,96222.28
2022-08-22T07:37:07.977Z,96218.84
2022-08-22T07:40:05.587Z,96217.00
2022-08-22T07:42:57.978Z,96221.31
2022-08-22T07:45:30.977Z,96230.31
2022-08-22T07:48:09.902Z,96229.78
2022-08-22T07:50:45.830Z,96224.31
2022-08-22T07:53:20.781Z,96231.72
2022-08-22T07:55:49.669Z,96227.63
2022-08-22T07:58:18.088Z,96230.69
2022-08-22T08:00:46.762Z,96220.41
2022-08-22T08:03:13.645Z,96221.28
2022-08-22T08:05:44.001Z,96227.59
2022-08-22T08:08:24.677Z,96223.41
2022-08-22T08:10:56.098Z,96223.16
2022-08-22T08:13:35.371Z,96219.91
2022-08-22T08:16:06.534Z,96226.63
2022-08-22T08:18:35.391Z,96217.78
2022-08-22T08:21:06.978Z,96223.25
2022-08-22T08:23:41.456Z,96223.81
2022-08-22T08:26:10.889Z,96225.88
2022-08-22T08:28:47.512Z,96222.41
2022-08-22T08:31:24.776Z,96218.75
2022-08-22T08:33:58.367Z,96205.38
2022-08-22T08:36:40.139Z,96205.34
2022-08-22T08:39:12.595Z,96215.00
2022-08-22T08:41:52.358Z,96220.47
2022-08-22T08:44:23.764Z,96221.81
2022-08-22T08:47:32.224Z,96221.91
2022-08-22T08:50:26.094Z,96227.94
2022-08-22T08:53:19.931Z,96215.44
2022-08-22T08:55:56.318Z,96221.63
2022-08-22T08:59:10.007Z,96222.78
2022-08-22T09:02:01.673Z,96216.31
2022-08-22T09:04:54.532Z,96216.50
2022-08-22T09:07:49.394Z,96215.31
2022-08-22T09:10:19.007Z,96213.31
2022-08-22T09:13:12.266Z,96207.16
2022-08-22T09:16:05.846Z,96205.66
2022-08-22T09:18:55.924Z,96211.84
2022-08-22T09:21:42.066Z,96207.63
2022-08-22T09:24:51.799Z,96213.81
2022-08-22T09:27:30.924Z,96208.25
2022-08-22T09:30:18.791Z,96195.94
2022-08-22T09:33:11.763Z,96205.47
2022-08-22T09:35:59.074Z,96203.31
2022-08-22T09:38:55.802Z,96204.34
2022-08-22T09:42:00.451Z,96209.84
2022-08-22T09:44:51.151Z,96204.69
2022-08-22T09:47:26.866Z,96207.81
2022-08-22T09:50:36.687Z,96207.59
2022-08-22T09:53:30.259Z,96200.75
2022-08-22T09:56:14.982Z,96196.81
2022-08-22T09:59:13.652Z,96191.63
2022-08-22T10:01:48.153Z,96202.38
2022-08-22T10:04:53.381Z,96196.94
2022-08-22T10:07:52.766Z,96206.81
2022-08-22T10:10:26.307Z,96202.28
2022-08-22T10:13:20.960Z,96193.31
2022-08-22T10:16:03.270Z,96194.03
2022-08-22T10:18:43.938Z,96201.97
2022-08-22T10:21:33.737Z,96201.25
2022-08-22T10:24:03.110Z,96194.81
2022-08-22T10:26:48.799Z,96182.50
2022-08-22T10:29:15.443Z,96196.47
2022-08-22T10:31:58.554Z,96182.72
2022-08-22T10:34:33.011Z,96191.59
2022-08-22T10:37:11.606Z,96191.47
2022-08-22T10:39:50.322Z,96194.03
2022-08-22T10:42:36.411Z,96192.31
2022-08-22T10:45:36.696Z,96205.84
2022-08-22T10:48:08.798Z,96188.34
2022-08-22T10:50:43.387Z,96187.81
2022-08-22T10:53:34.624Z,96192.00
2022-08-22T10:56:13.332Z,96197.88
2022-08-22T10:58:56.123Z,96194.09
2022-08-22T11:01:41.808Z,96194.41
2022-08-22T11:04:28.247Z,96198.13
2022-08-22T11:07:17.397Z,96196.66
2022-08-22T11:09:56.997Z,96194.72
2022-08-22T11:12:35.225Z,96202.22
2022-08-22T11:15:15.276Z,96199.66
2022-08-22T11:18:13.029Z,96199.66
2022-08-22T11:20:45.910Z,96203.72
2022-08-22T11:23:21.853Z,96198.25
2022-08-22T11:26:14.544Z,96199.59
2022-08-22T11:29:13.810Z,96196.31
2022-08-22T11:31:51.332Z,96205.84
2022-08-22T11:34:45.735Z,96192.66
2022-08-22T11:37:42.532Z,96201.31
2022-08-22T11:40:41.813Z,96206.13
2022-08-22T11:43:34.798Z,96201.16
2022-08-22T11:46:19.751Z,96205.94
2022-08-22T11:48:59.402Z,96202.50
2022-08-22T11:51:46.482Z,96209.53
2022-08-22T11:54:42.338Z,96211.19
2022-08-22T11:57:18.577Z,96206.16
2022-08-22T11:59:45.003Z,96208.72
2022-08-22T12:05:57.087Z,96219.84
2022-08-22T12:08:33.403Z,96211.94
2022-08-22T12:11:10.059Z,96214.72
2022-08-22T12:14:02.355Z,96201.09
2022-08-22T12:16:45.161Z,96205.22
2022-08-22T12:19:32.803Z,96213.50
2022-08-22T12:22:03.073Z,96213.38
2022-08-22T12:24:51.272Z,96206.50
2022-08-22T12:27:31.572Z,96207.47
2022-08-22T12:30:14.183Z,96198.56
2022-08-22T12:33:13.234Z,96204.75
2022-08-22T12:35:51.127Z,96182.84
2022-08-22T12:38:46.927Z,96195.50
2022-08-22T12:41:13.391Z,96195.56
2022-08-22T12:44:12.560Z,96199.38
2022-08-22T12:47:11.357Z,96193.22
2022-08-22T12:50:06.325Z,96190.88
2022-08-22T12:52:57.969Z,96199.75
2022-08-22T12:55:36.644Z,96187.88
2022-08-22T12:58:07.491Z,96189.81
2022-08-22T13:00:43.773Z,96195.34
2022-08-22T13:03:24.075Z,96188.94
2022-08-22T13:05:57.051Z,96179.63
2022-08-22T13:08:31.408Z,96181.66
2022-08-22T13:11:03.262Z,96176.78
2022-08-22T13:13:45.141Z,96187.38
2022-08-22T13:16:24.637Z,96194.06
2022-08-22T13:19:07.700Z,96180.00
2022-08-22T13:21:40.236Z,96191.44
2022-08-22T13:24:16.933Z,96183.97
2022-08-22T13:27:00.270Z,96185.47
2022-08-22T13:29:51.963Z,96188.97
2022-08-22T13:32:45.652Z,96184.69
2022-08-22T13:35:31.558Z,96178.34
2022-08-22T13:38:07.607Z,96183.56
2022-08-22T13:40:44.158Z,96180.09
2022-08-22T13:43:14.024Z,96186.19
2022-08-22T13:45:55.541Z,96184.69
2022-08-22T13:48:28.510Z,96180.91
2022-08-22T13:51:12.043Z,96172.19
2022-08-22T13:53:49.847Z,96165.13
2022-08-22T13:56:36.770Z,96178.31
2022-08-22T13:59:08.004Z,96168.75
2022-08-22T14:01:50.673Z,96166.41
2022-08-22T14:04:40.211Z,96166.78
2022-08-22T14:07:07.068Z,96165.19
2022-08-22T14:10:02.937Z,96158.13
2022-08-22T14:13:03.956Z,96159.69
2022-08-22T14:15:33.999Z,96166.41
2022-08-22T14:18:30.387Z,96159.00
2022-08-22T14:21:40.513Z,96161.69
2022-08-22T14:24:16.878Z,96155.28
2022-08-22T14:27:08.646Z,96156.69
2022-08-22T14:29:52.478Z,96158.69
2022-08-22T14:32:19.332Z,96160.84
2022-08-22T14:35:05.856Z,96162.53
2022-08-22T14:37:40.963Z,96160.31
2022-08-22T14:40:13.392Z,96159.00
2022-08-22T14:43:22.355Z,96159.69
2022-08-22T14:46:02.036Z,96156.38
2022-08-22T14:49:06.049Z,96150.09
2022-08-22T14:51:33.778Z,96159.81
2022-08-22T14:54:21.038Z,96163.69
2022-08-22T14:56:50.050Z,96163.34
2022-08-22T14:59:37.048Z,96161.81
2022-08-22T15:02:13.635Z,96161.50
2022-08-22T15:04:44.066Z,96168.66
2022-08-22T15:07:21.933Z,96170.69
2022-08-22T15:09:51.047Z,96170.94
2022-08-22T15:12:32.183Z,96164.75
2022-08-22T15:15:01.693Z,96170.78
2022-08-22T15:17:51.044Z,96167.03
2022-08-22T15:20:34.048Z,96170.56
2022-08-22T15:23:15.102Z,96154.00
2022-08-22T15:25:47.088Z,96159.16
2022-08-22T15:28:14.442Z,96160.78
2022-08-22T15:31:03.818Z,96164.13
2022-08-22T15:33:40.146Z,96151.19
2022-08-22T15:36:10.597Z,96149.13
2022-08-22T15:38:48.056Z,96147.81
2022-08-22T15:41:36.408Z,96165.25
2022-08-22T15:44:32.712Z,96171.16
2022-08-22T15:47:03.068Z,96162.97
2022-08-22T15:49:36.230Z,96151.00
2022-08-22T15:52:04.501Z,96170.50
2022-08-22T15:54:32.535Z,96171.09
2022-08-22T15:57:16.107Z,96160.97
2022-08-22T15:59:54.788Z,96171.50
2022-08-22T16:02:21.178Z,96168.19
2022-08-22T16:04:51.696Z,96170.53
2022-08-22T16:07:20.096Z,96173.84
2022-08-22T16:09:49.257Z,96177.44
2022-08-22T16:12:29.921Z,96185.00
2022-08-22T16:14:57.024Z,96185.00
2022-08-22T16:17:29.364Z,96186.28
2022-08-22T16:20:08.041Z,96192.06
2022-08-22T16:22:55.319Z,96196.47
2022-08-22T16:25:41.635Z,96199.16
2022-08-22T16:28:19.155Z,96193.97
2022-08-22T16:30:52.361Z,96200.88
2022-08-22T16:33:48.226Z,96198.81
2022-08-22T16:36:14.574Z,96194.09
2022-08-22T16:38:43.631Z,96193.25
2022-08-22T16:41:48.478Z,96200.03
2022-08-22T16:44:22.687Z,96196.16
2022-08-22T16:46:51.103Z,96202.03
2022-08-22T16:49:29.535Z,96206.56
2022-08-22T16:52:14.630Z,96211.25
2022-08-22T16:54:45.681Z,96211.63
2022-08-22T16:57:14.855Z,96205.63
2022-08-22T17:00:00.735Z,96208.41
2022-08-22T17:02:44.509Z,96210.09
2022-08-22T17:05:16.841Z,96216.41
2022-08-22T17:07:52.334Z,96211.84
2022-08-22T17:10:18.709Z,96220.03
2022-08-22T17:13:06.249Z,96220.09
2022-08-22T17:15:32.639Z,96219.09
2022-08-22T17:18:12.097Z,96219.09
2022-08-22T17:20:57.708Z,96221.03
2022-08-22T17:23:46.386Z,96216.63
2022-08-22T17:26:55.114Z,96220.03
2022-08-22T17:29:27.440Z,96224.09
2022-08-22T17:31:59.426Z,96222.63
2022-08-22T17:34:38.985Z,96227.94
2022-08-22T17:37:18.089Z,96230.38
2022-08-22T17:39:57.862Z,96234.22
2022-08-22T17:42:24.268Z,96225.16
2022-08-22T17:44:56.714Z,96230.19
2022-08-22T17:47:42.919Z,96233.75
2022-08-22T17:50:13.257Z,96232.66
2022-08-22T17:52:47.726Z,96231.91
2022-08-22T17:55:19.502Z,96230.06
2022-08-22T17:57:48.943Z,96227.47
2022-08-22T18:00:18.643Z,96230.53
2022-08-22T18:02:54.989Z,96239.38
2022-08-22T18:05:36.880Z,96233.63
2022-08-22T18:08:06.481Z,96238.66
2022-08-22T18:10:35.915Z,96235.97
2022-08-22T18:13:09.988Z,96241.38
2022-08-22T18:15:42.484Z,96241.09
2022-08-22T18:18:08.931Z,96244.97
2022-08-22T18:20:54.243Z,96239.22
2022-08-22T18:23:36.182Z,96243.16
2022-08-22T18:26:07.300Z,96247.78
2022-08-22T18:28:48.555Z,96247.91
2022-08-22T18:31:28.726Z,96253.16
2022-08-22T18:34:01.545Z,96250.16
2022-08-22T18:36:33.696Z,96244.84
2022-08-22T18:39:06.081Z,96252.13
2022-08-22T18:41:45.640Z,96248.00
2022-08-22T18:44:20.555Z,96245.06
2022-08-22T18:46:51.585Z,96248.47
2022-08-22T18:49:19.512Z,96246.56
2022-08-22T18:52:18.445Z,96248.09
2022-08-22T18:54:47.527Z,96249.25
2022-08-22T18:57:32.679Z,96243.50
2022-08-22T19:00:17.182Z,96253.06
2022-08-22T19:02:55.929Z,96254.59
2022-08-22T19:05:22.652Z,96261.53
2022-08-22T19:07:59.880Z,96263.41
2022-08-22T19:10:29.488Z,96256.97
2022-08-22T19:13:08.133Z,96262.38
2022-08-22T19:15:44.403Z,96263.16
2022-08-22T19:18:29.177Z,96264.41
2022-08-22T19:21:33.588Z,96257.50
2022-08-22T19:24:00.329Z,96263.97
2022-08-22T19:26:29.787Z,96267.19
2022-08-22T19:28:58.021Z,96264.16
2022-08-22T19:31:24.420Z,96267.19
2022-08-22T19:34:09.648Z,96268.38
2022-08-22T19:36:36.204Z,96264.53
2022-08-22T19:39:10.233Z,96263.38
2022-08-22T19:41:39.400Z,96269.84
2022-08-22T19:44:10.471Z,96276.81
2022-08-22T19:46:38.237Z,96270.34
2022-08-22T19:49:06.376Z,96276.84
2022-08-22T19:51:33.633Z,96273.41
2022-08-22T19:54:23.161Z,96272.59
2022-08-22T19:56:52.397Z,96266.97
2022-08-22T19:59:25.623Z,96265.81
2022-08-22T20:02:03.768Z,96270.75
2022-08-22T20:04:48.747Z,96260.47
2022-08-22T20:07:36.877Z,96266.97
2022-08-22T20:10:08.622Z,96269.66
2022-08-22T20:12:39.333Z,96270.88
2022-08-22T20:15:32.198Z,96269.81
2022-08-22T20:18:47.343Z,96270.25
2022-08-22T20:20:59.794Z,96275.16
2022-08-22T20:23:30.780Z,96274.75
2022-08-22T20:25:57.992Z,96273.59
2022-08-22T20:28:31.680Z,96268.25
2022-08-22T20:31:00.158Z,96271.25
2022-08-22T20:33:29.412Z,96268.25
2022-08-22T20:35:59.116Z,96277.75
2022-08-22T20:38:55.459Z,96272.81
2022-08-22T20:41:26.142Z,96273.19
2022-08-22T20:44:02.421Z,96271.25
2022-08-22T20:46:43.813Z,96272.84
2022-08-22T20:49:23.527Z,96270.97
2022-08-22T20:51:57.767Z,96266.41
2022-08-22T20:54:26.077Z,96271.38
2022-08-22T20:56:57.407Z,96239.81
2022-08-22T20:59:38.371Z,96268.38
2022-08-22T21:02:25.005Z,96269.97
2022-08-22T21:04:57.563Z,96272.63
2022-08-22T21:07:26.328Z,96271.47
2022-08-22T21:10:20.153Z,96258.50
2022-08-22T21:13:02.521Z,96270.31
2022-08-22T21:15:29.727Z,96261.53
2022-08-22T21:17:56.142Z,96258.13
2022-08-22T21:20:22.719Z,96256.59
2022-08-22T21:22:51.473Z,96243.25
2022-08-22T21:25:17.997Z,96244.78
2022-08-22T21:27:46.607Z,96256.59
2022-08-22T21:30:20.468Z,96248.59
2022-08-22T21:32:51.153Z,96247.09
2022-08-22T21:35:27.083Z,96243.72
2022-08-22T21:37:53.723Z,96245.63
2022-08-22T21:40:23.013Z,96242.19
2022-08-22T21:43:21.944Z,96247.16
2022-08-22T21:45:48.338Z,96246.00
2022-08-22T21:48:34.302Z,96251.00
2022-08-22T21:51:29.955Z,96260.09
2022-08-22T21:54:17.708Z,96256.31
2022-08-22T21:56:45.027Z,96261.31
2022-08-22T21:59:26.184Z,96251.81
2022-08-22T22:02:39.646Z,96249.91
2022-08-22T22:05:24.117Z,96252.50
2022-08-22T22:07:50.473Z,96254.06
2022-08-22T22:10:17.575Z,96246.06
2022-08-22T22:12:45.075Z,96245.31
2022-08-22T22:15:13.744Z,96243.03
2022-08-22T22:17:40.219Z,96235.03
2022-08-22T22:20:07.083Z,96235.44
2022-08-22T22:22:33.441Z,96235.81
2022-08-22T22:25:04.168Z,96235.88
2022-08-22T22:27:30.571Z,96230.19
2022-08-22T22:29:56.939Z,96232.50
2022-08-22T22:32:23.308Z,96237.47
2022-08-22T22:34:50.133Z,96235.56
2022-08-22T22:37:16.722Z,96240.13
2022-08-22T22:39:43.273Z,96238.22
2022-08-22T22:42:09.859Z,96239.75
2022-08-22T22:44:36.307Z,96241.69
2022-08-22T22:47:02.982Z,96235.22
2022-08-22T22:49:30.306Z,96230.63
2022-08-22T22:51:57.007Z,96225.28
2022-08-22T22:54:27.521Z,96226.81
2022-08-22T22:56:56.226Z,96226.47
2022-08-22T22:59:25.430Z,96223.44
2022-08-22T23:02:03.641Z,96227.97
2022-08-22T23:04:30.510Z,96231.44
2022-08-22T23:06:56.970Z,96232.56
2022-08-22T23:09:37.981Z,96232.94
2022-08-22T23:12:05.775Z,96226.09
2022-08-22T23:14:32.893Z,96232.22
2022-08-22T23:16:59.711Z,96231.47
2022-08-22T23:19:27.065Z,96238.31
2022-08-22T23:21:55.699Z,96230.31
2022-08-22T23:24:22.129Z,96228.44
2022-08-22T23:26:48.515Z,96231.91
2022-08-22T23:29:14.877Z,96229.59
2022-08-22T23:31:58.124Z,96233.78
2022-08-22T23:34:32.943Z,96234.16
2022-08-22T23:37:00.268Z,96237.97
2022-08-22T23:39:27.593Z,96234.53
2022-08-22T23:41:54.435Z,96234.16
2022-08-22T23:44:22.413Z,96242.53
2022-08-22T23:46:48.928Z,96230.72
2022-08-22T23:49:15.987Z,96229.56
2022-08-22T23:51:43.143Z,96227.66
2022-08-22T23:54:10.910Z,96228.81
2022-08-22T23:56:41.531Z,96226.53
2022-08-22T23:59:09.400Z,96224.22
